Data for 04/01/2017

Time Sea-Level Adjusted Pressure Absolute Pressure Temperature Relative Humidity Dew Point   
(mb) (inHg) (mb) (inHg) (C) (F) (%) (C) (F)
00:05 1022 30.18 851 25.13 4.2 39.6 78 0.7 33.3
00:10 1022 30.18 851 25.13 4.1 39.4 78 0.6 33.1
00:15 1022 30.18 851 25.13 4 39.2 78 0.4 32.8
00:20 1022 30.18 851 25.13 3.9 39 78 0.4 32.7
00:25 1022 30.18 851 25.13 3.9 39 78 0.4 32.7
00:30 1022 30.18 851 25.13 3.8 38.9 78 0.3 32.6
00:35 1022 30.18 851 25.13 3.7 38.7 79 0.3 32.6
00:40 1022 30.18 851 25.13 3.7 38.6 79 0.3 32.5
00:45 1022 30.18 851 25.13 3.6 38.5 78 0.2 32.4
00:50 1022 30.18 851 25.13 3.6 38.4 78 0.2 32.3
00:55 1022 30.18 851 25.13 3.6 38.4 79 0.2 32.4
01:00 1022 30.18 851 25.13 3.5 38.3 79 0.2 32.3
01:05 1022 30.18 851 25.13 3.5 38.3 79 0.1 32.2
01:10 1022 30.18 851 25.13 3.5 38.2 78 0 32.1
01:15 1022 30.18 851 25.13 3.5 38.3 77 -0.2 31.7
01:20 1021 30.15 851 25.13 3.5 38.3 77 -0.1 31.7
01:25 1021 30.15 851 25.13 3.4 38.2 78 -0.1 31.9
01:30 1021 30.15 851 25.13 3.3 38 79 -0 32
01:35 1021 30.15 851 25.13 3.2 37.8 79 0 32
01:40 1021 30.15 851 25.13 3.1 37.7 80 0 32
01:45 1021 30.15 851 25.13 3.1 37.5 80 -0.1 31.8
01:50 1021 30.15 851 25.13 3 37.4 80 -0.1 31.9
01:55 1021 30.15 851 25.13 2.9 37.3 81 -0.1 31.9
02:00 1021 30.15 850 25.1 2.9 37.2 81 -0.1 31.8
02:05 1021 30.15 850 25.1 2.9 37.2 80 -0.2 31.6
02:10 1021 30.15 850 25.1 2.8 37.1 80 -0.3 31.4
02:15 1021 30.15 850 25.1 2.8 37.1 80 -0.3 31.4
02:20 1021 30.15 850 25.1 2.8 37.1 79 -0.4 31.3
02:25 1021 30.15 850 25.1 2.8 37 79 -0.4 31.2
02:30 1021 30.15 850 25.1 2.8 37 79 -0.5 31
02:35 1021 30.15 850 25.1 2.8 37 79 -0.6 30.9
02:40 1021 30.15 851 25.13 2.8 37 79 -0.6 31
02:45 1021 30.15 851 25.13 2.7 36.9 79 -0.6 30.9
02:50 1021 30.15 850 25.1 2.7 36.9 79 -0.6 30.9
02:55 1021 30.15 851 25.13 2.6 36.7 79 -0.6 30.9
03:00 1021 30.15 850 25.1 2.5 36.6 80 -0.6 30.8
03:05 1021 30.15 851 25.13 2.4 36.3 80 -0.7 30.8
03:10 1021 30.15 851 25.13 2.2 36 81 -0.7 30.7
03:15 1021 30.15 851 25.13 2.1 35.8 81 -0.8 30.6
03:20 1022 30.18 851 25.13 2 35.6 81 -0.9 30.4
03:25 1022 30.18 851 25.13 1.9 35.3 82 -1 30.3
03:30 1022 30.18 851 25.13 1.7 35 82 -1.1 30.1
03:35 1022 30.18 851 25.13 1.6 34.9 82 -1.1 30
03:40 1021 30.15 851 25.13 1.5 34.6 83 -1.1 30
03:45 1021 30.15 851 25.13 1.4 34.5 84 -1.1 30
03:50 1021 30.15 851 25.13 1.3 34.4 83 -1.2 29.8
03:55 1021 30.15 851 25.13 1.2 34.2 84 -1.2 29.8
04:00 1021 30.15 851 25.13 1.1 34 84 -1.4 29.6
04:05 1022 30.18 851 25.13 0.9 33.7 84 -1.5 29.3
04:10 1022 30.18 851 25.13 1 33.8 83 -1.6 29.1
04:15 1022 30.18 851 25.13 0.8 33.4 82 -2 28.4
04:20 1022 30.18 851 25.13 0.6 33 82 -2.2 28
04:25 1022 30.18 851 25.13 0.5 32.8 82 -2.3 27.8
04:30 1022 30.18 851 25.13 0.6 33.1 82 -2.1 28.3
04:35 1022 30.18 851 25.13 0.8 33.5 82 -1.8 28.7
04:40 1022 30.18 851 25.13 1.2 34.1 82 -1.5 29.2
04:45 1022 30.18 851 25.13 1.3 34.4 82 -1.5 29.3
04:50 1022 30.18 851 25.13 1.3 34.4 82 -1.5 29.4
04:55 1022 30.18 851 25.13 1.3 34.4 82 -1.4 29.5
05:00 1022 30.18 851 25.13 1.5 34.8 82 -1.3 29.7
05:05 1022 30.18 851 25.13 1.5 34.6 81 -1.4 29.5
05:10 1022 30.18 851 25.13 1.3 34.4 81 -1.5 29.3
05:15 1022 30.18 851 25.13 1 33.9 83 -1.5 29.2
05:20 1021 30.15 851 25.13 1 33.7 83 -1.6 29.1
05:25 1021 30.15 851 25.13 0.6 33.1 84 -1.8 28.7
05:30 1021 30.15 851 25.13 0.3 32.6 85 -2 28.5
05:35 1021 30.15 850 25.1 0.2 32.4 85 -2 28.4
05:40 1021 30.15 850 25.1 0.2 32.3 85 -2 28.3
05:45 1021 30.15 850 25.1 0.1 32.2 86 -2 28.3
05:50 1021 30.15 850 25.1 0 32 86 -2.1 28.2
05:55 1021 30.15 850 25.1 -0 31.9 86 -2.1 28.2
06:00 1021 30.15 850 25.1 0 32.1 86 -2.1 28.3
06:05 1021 30.15 850 25.1 0.2 32.3 85 -2 28.4
06:10 1021 30.15 850 25.1 0.3 32.6 84 -2 28.4
06:15 1021 30.15 850 25.1 0.3 32.6 84 -2 28.4
06:20 1021 30.15 850 25.1 0.4 32.8 84 -1.9 28.6
06:25 1021 30.15 850 25.1 0.3 32.6 84 -2 28.4
06:30 1021 30.15 850 25.1 0.2 32.4 85 -2 28.4
06:35 1021 30.15 850 25.1 0.2 32.3 85 -2 28.4
06:40 1020 30.12 850 25.1 0.2 32.3 85 -2.1 28.3
06:45 1020 30.12 850 25.1 0.1 32.1 85 -2.1 28.2
06:50 1020 30.12 850 25.1 0.1 32.1 85 -2.2 28.1
06:55 1020 30.12 850 25.1 0.1 32.1 85 -2.2 28.1
07:00 1021 30.15 850 25.1 0.1 32.3 85 -2.2 28.1
07:05 1021 30.15 850 25.1 0.2 32.4 85 -2 28.3
07:10 1021 30.15 850 25.1 0.3 32.6 84 -2 28.3
07:15 1020 30.12 850 25.1 0.3 32.6 84 -2.1 28.3
07:20 1020 30.12 850 25.1 0.2 32.4 84 -2.1 28.1
07:25 1020 30.12 849 25.07 0.2 32.4 84 -2.2 28.1
07:30 1020 30.12 849 25.07 0.5 32.8 83 -2.2 28.1
07:35 1020 30.12 849 25.07 0.6 33.1 82 -2.1 28.2
07:40 1020 30.12 849 25.07 0.8 33.4 81 -2.1 28.2
07:45 1020 30.12 849 25.07 1.1 33.9 80 -2 28.4
07:50 1020 30.12 849 25.07 1.2 34.2 80 -1.9 28.6
07:55 1020 30.12 849 25.07 1.3 34.3 79 -1.9 28.6
08:00 1020 30.12 849 25.07 1.4 34.6 78 -2 28.5
08:05 1020 30.12 849 25.07 1.5 34.8 77 -2 28.3
08:10 1020 30.12 849 25.07 1.6 34.8 77 -2 28.3
08:15 1020 30.12 849 25.07 1.9 35.4 76 -1.9 28.5
08:20 1020 30.12 849 25.07 1.9 35.5 76 -1.9 28.6
08:25 1020 30.12 849 25.07 1.9 35.4 75 -2 28.3
08:30 1020 30.12 849 25.07 2.2 35.9 74 -2.1 28.3
08:35 1020 30.12 849 25.07 2.6 36.6 72 -1.9 28.5
08:40 1020 30.12 849 25.07 2.9 37.1 71 -1.8 28.7
08:45 1020 30.12 850 25.1 3.3 38 70 -1.7 28.9
08:50 1020 30.12 850 25.1 4 39.1 67 -1.7 29
08:55 1021 30.15 850 25.1 4.5 40.2 64 -1.6 29.1
09:00 1021 30.15 850 25.1 4.8 40.6 64 -1.5 29.2
09:05 1021 30.15 850 25.1 5 41 63 -1.4 29.4
09:10 1021 30.15 850 25.1 5.4 41.8 61 -1.5 29.2
09:15 1021 30.15 850 25.1 5.6 42.1 61 -1.3 29.7
09:20 1021 30.15 850 25.1 5.9 42.7 59 -1.5 29.3
09:25 1021 30.15 850 25.1 6.2 43.1 59 -1.2 29.9
09:30 1021 30.15 850 25.1 6.3 43.3 59 -1.1 30
09:35 1021 30.15 850 25.1 6.1 43 58 -1.6 29.2
09:40 1021 30.15 850 25.1 6.1 43.1 60 -1 30.3
09:45 1021 30.15 850 25.1 6.6 43.9 55 -1.9 28.6
09:50 1021 30.15 850 25.1 6.8 44.2 55 -1.6 29
09:55 1021 30.15 850 25.1 6.8 44.2 54 -1.8 28.7
10:00 1021 30.15 850 25.1 6.6 43.8 55 -1.7 28.9
10:05 1021 30.15 850 25.1 6.2 43.2 55 -2.1 28.3
10:10 1021 30.15 850 25.1 6.4 43.5 55 -1.9 28.6
10:15 1021 30.15 850 25.1 6.1 43 57 -1.8 28.8
10:20 1021 30.15 850 25.1 6.5 43.7 55 -1.8 28.7
10:25 1021 30.15 850 25.1 6.6 43.8 57 -1.3 29.6
10:30 1020 30.12 850 25.1 6.7 44.1 56 -1.4 29.4
10:35 1020 30.12 849 25.07 6.4 43.6 57 -1.4 29.5
10:40 1020 30.12 849 25.07 7.1 44.7 55 -1.4 29.6
10:45 1020 30.12 849 25.07 7.6 45.6 52 -1.6 29.2
10:50 1020 30.12 849 25.07 7.8 46 52 -1.4 29.5
10:55 1020 30.12 849 25.07 8.2 46.7 52 -1.2 29.9
11:00 1020 30.12 849 25.07 8 46.4 53 -1 30.1
11:05 1020 30.12 849 25.07 8.2 46.7 51 -1.4 29.5
11:10 1020 30.12 849 25.07 7.9 46.2 52 -1.3 29.6
11:15 1020 30.12 849 25.07 8.7 47.6 48 -1.6 29.1
11:20 1020 30.12 849 25.07 9.4 48.9 45 -2 28.5
11:25 1020 30.12 849 25.07 10.1 50.2 44 -1.7 29
11:30 1019 30.09 849 25.07 9.7 49.4 47 -1.1 30
11:35 1019 30.09 849 25.07 9.7 49.5 44 -1.9 28.6
11:40 1019 30.09 849 25.07 10.3 50.6 43 -1.6 29
11:45 1019 30.09 848 25.04 9.7 49.4 45 -1.5 29.3
11:50 1019 30.09 848 25.04 9.3 48.8 46 -1.8 28.8
11:55 1019 30.09 848 25.04 9.8 49.6 46 -1.3 29.7
12:00 1019 30.09 848 25.04 9.7 49.5 45 -1.6 29
12:05 1019 30.09 848 25.04 10.7 51.3 42 -1.7 28.9
12:10 1019 30.09 848 25.04 10.3 50.5 46 -0.9 30.3
12:15 1019 30.09 848 25.04 9.7 49.5 45 -1.6 29.2
12:20 1019 30.09 848 25.04 9.6 49.2 46 -1.5 29.2
12:25 1019 30.09 848 25.04 9.4 49 47 -1.3 29.7
12:30 1019 30.09 848 25.04 9.1 48.3 47 -1.7 28.9
12:35 1019 30.09 848 25.04 9.4 48.9 46 -1.6 29.1
12:40 1019 30.09 848 25.04 10.1 50.1 44 -1.5 29.4
12:45 1018 30.06 848 25.04 11.5 52.6 41 -1.4 29.5
12:50 1018 30.06 848 25.04 10.8 51.4 41 -1.9 28.5
12:55 1018 30.06 848 25.04 11.1 52 38 -2.6 27.3
13:00 1018 30.06 848 25.04 11.6 53 38 -2 28.4
13:05 1018 30.06 848 25.04 11.9 53.3 37 -2.2 28.1
13:10 1018 30.06 847 25.01 11.8 53.2 37 -2.5 27.5
13:15 1018 30.06 847 25.01 11.8 53.3 35 -2.9 26.7
13:20 1018 30.06 847 25.01 12 53.6 36 -2.4 27.6
13:25 1018 30.06 847 25.01 12.4 54.2 36 -2.1 28.2
13:30 1018 30.06 847 25.01 12.4 54.2 35 -2.6 27.4
13:35 1018 30.06 847 25.01 12.5 54.5 36 -2.2 28.1
13:40 1018 30.06 847 25.01 12.2 54 35 -2.5 27.4
13:45 1018 30.06 847 25.01 13.4 56.2 33 -2.3 27.9
13:50 1018 30.06 847 25.01 14.1 57.4 33 -1.8 28.8
13:55 1018 30.06 847 25.01 14.3 57.7 34 -1.3 29.6
14:00 1018 30.06 847 25.01 14.3 57.7 33 -1.8 28.8
14:05 1018 30.06 847 25.01 14.2 57.5 33 -1.7 28.9
14:10 1018 30.06 847 25.01 13.9 57 34 -1.8 28.7
14:15 1018 30.06 847 25.01 14 57.1 33 -2.1 28.2
14:20 1018 30.06 847 25.01 13.6 56.4 34 -2.1 28.3
14:25 1018 30.06 847 25.01 14 57.3 33 -1.9 28.6
14:30 1017 30.03 847 25.01 14 57.2 33 -1.8 28.7
14:35 1017 30.03 846 24.98 14 57.2 32 -2.3 27.8
14:40 1017 30.03 846 24.98 14.1 57.5 33 -1.9 28.6
14:45 1017 30.03 846 24.98 15.1 59.2 29 -2.9 26.8
14:50 1017 30.03 846 24.98 14.9 58.7 30 -2.7 27.2
14:55 1017 30.03 846 24.98 14.8 58.6 28 -3.2 26.2
15:00 1017 30.03 846 24.98 15.1 59.2 28 -3.1 26.5
15:05 1017 30.03 846 24.98 15.1 59.2 29 -2.6 27.3
15:10 1017 30.03 846 24.98 15.1 59.1 30 -2.1 28.2
15:15 1017 30.03 846 24.98 14.8 58.7 31 -2.2 28
15:20 1017 30.03 846 24.98 15 59 29 -2.8 27
15:25 1017 30.03 846 24.98 15.2 59.4 30 -2.1 28.2
15:30 1016 30 846 24.98 13.8 56.8 32 -2.6 27.3
15:35 1016 30 845 24.95 14.6 58.2 32 -2.1 28.3
15:40 1016 30 845 24.95 15.2 59.4 29 -2.7 27.2
15:45 1016 30 845 24.95 15.4 59.6 29 -2.7 27.1
15:50 1016 30 845 24.95 15 59 30 -2.5 27.5
15:55 1016 30 845 24.95 15 59 29 -2.7 27.1
16:00 1016 30 845 24.95 14.4 57.9 29 -3.2 26.3
16:05 1016 30 845 24.95 15.2 59.3 27 -3.5 25.7
16:10 1016 30 845 24.95 15.8 60.5 27 -3.2 26.2
16:15 1016 30 845 24.95 15.9 60.5 27 -2.8 27
16:20 1016 30 845 24.95 15.3 59.6 27 -3.5 25.7
16:25 1016 30 845 24.95 15.8 60.5 27 -2.9 26.8
16:30 1016 30 845 24.95 15.9 60.6 27 -3.1 26.4
16:35 1015 29.97 845 24.95 16.3 61.3 26 -3.2 26.2
16:40 1015 29.97 845 24.95 16.3 61.3 26 -3.1 26.5
16:45 1015 29.97 845 24.95 15.9 60.6 26 -3.2 26.2
16:50 1015 29.97 845 24.95 15.8 60.4 27 -3.2 26.3
16:55 1015 29.97 844 24.92 16.2 61.2 26 -3.4 25.9
17:00 1015 29.97 844 24.92 16.4 61.6 26 -2.9 26.8
17:05 1015 29.97 844 24.92 15.7 60.2 27 -3 26.7
17:10 1015 29.97 844 24.92 14.9 58.9 28 -3.1 26.4
17:15 1015 29.97 844 24.92 15.4 59.7 27 -3.5 25.7
17:20 1015 29.97 844 24.92 15.8 60.4 28 -2.5 27.5
17:25 1015 29.97 844 24.92 15.9 60.6 28 -2.7 27.1
17:30 1015 29.97 844 24.92 15.2 59.4 28 -3 26.6
17:35 1015 29.97 844 24.92 15.1 59.2 28 -3.1 26.3
17:40 1015 29.97 844 24.92 15.6 60 27 -3.1 26.4
17:45 1015 29.97 844 24.92 15.5 59.9 28 -3 26.6
17:50 1015 29.97 844 24.92 15.2 59.3 29 -2.8 27
17:55 1015 29.97 844 24.92 15.1 59.2 29 -2.9 26.7
18:00 1015 29.97 844 24.92 15 59 29 -2.7 27.2
18:05 1015 29.97 844 24.92 15 59 29 -2.6 27.4
18:10 1015 29.97 844 24.92 14.4 57.9 30 -3 26.6
18:15 1015 29.97 844 24.92 14.4 57.8 31 -2.7 27.2
18:20 1015 29.97 844 24.92 14.6 58.2 31 -2.4 27.6
18:25 1015 29.97 844 24.92 14.3 57.8 32 -2.1 28.2
18:30 1015 29.97 844 24.92 14.3 57.8 31 -2.5 27.5
18:35 1015 29.97 844 24.92 14.1 57.4 31 -2.8 27
18:40 1015 29.97 844 24.92 13.9 57 31 -2.7 27.1
18:45 1015 29.97 844 24.92 14.1 57.4 31 -2.8 26.9
18:50 1015 29.97 844 24.92 14.2 57.5 30 -2.9 26.8
18:55 1015 29.97 844 24.92 14.1 57.4 31 -2.8 26.9
19:00 1015 29.97 844 24.92 14.2 57.5 30 -2.9 26.7
19:05 1015 29.97 844 24.92 14.2 57.5 31 -2.6 27.2
19:10 1015 29.97 844 24.92 14.1 57.4 31 -2.8 27
19:15 1015 29.97 844 24.92 14 57.2 31 -2.9 26.8
19:20 1015 29.97 844 24.92 13.8 56.9 30 -3.2 26.3
19:25 1015 29.97 844 24.92 13.8 56.8 32 -2.8 27
19:30 1015 29.97 844 24.92 13.6 56.4 32 -2.9 26.9
19:35 1015 29.97 844 24.92 13.5 56.3 32 -2.8 26.9
19:40 1015 29.97 844 24.92 13.5 56.3 32 -3 26.6
19:45 1015 29.97 844 24.92 13.4 56.1 32 -3 26.6
19:50 1015 29.97 844 24.92 13.3 55.9 33 -2.7 27.2
19:55 1015 29.97 844 24.92 13.1 55.7 34 -2.4 27.6
20:00 1015 29.97 844 24.92 13 55.3 34 -2.5 27.6
20:05 1015 29.97 844 24.92 12.9 55.2 34 -2.6 27.4
20:10 1015 29.97 844 24.92 12.8 55.1 34 -2.6 27.4
20:15 1015 29.97 844 24.92 12.7 54.9 33 -3.1 26.5
20:20 1015 29.97 844 24.92 12.5 54.5 32 -3.7 25.3
20:25 1015 29.97 844 24.92 12.5 54.5 36 -1.9 28.6
20:30 1015 29.97 844 24.92 12.2 53.9 34 -3.3 26.1
20:35 1015 29.97 844 24.92 12.1 53.7 36 -2.5 27.5
20:40 1015 29.97 844 24.92 11.8 53.3 36 -2.6 27.4
20:45 1015 29.97 844 24.92 11.8 53.2 37 -2.4 27.7
20:50 1015 29.97 844 24.92 11.7 53.1 36 -2.6 27.3
20:55 1015 29.97 844 24.92 11.8 53.2 36 -2.9 26.8
21:00 1015 29.97 844 24.92 11.8 53.2 36 -2.8 27
21:05 1015 29.97 844 24.92 11.7 53 37 -2.6 27.4
21:10 1015 29.97 844 24.92 11.6 52.9 37 -2.7 27.1
21:15 1015 29.97 844 24.92 11.6 52.9 38 -2.3 27.8
21:20 1015 29.97 844 24.92 11.4 52.5 39 -2.2 28.1
21:25 1015 29.97 844 24.92 11.4 52.5 36 -3.2 26.3
21:30 1015 29.97 844 24.92 11.7 53.1 35 -3.2 26.2
21:35 1015 29.97 844 24.92 11.8 53.3 35 -3.3 26.1
21:40 1015 29.97 844 24.92 11.9 53.5 35 -3.1 26.4
21:45 1015 29.97 844 24.92 11.9 53.4 36 -2.8 26.9
21:50 1015 29.97 844 24.92 11.9 53.3 36 -2.6 27.3
21:55 1015 29.97 844 24.92 11.8 53.3 37 -2.5 27.5
22:00 1015 29.97 845 24.95 11.8 53.3 37 -2.2 28
22:05 1015 29.97 845 24.95 11.8 53.2 38 -2.1 28.2
22:10 1015 29.97 845 24.95 11.7 53.1 38 -2 28.4
22:15 1016 30 845 24.95 11.7 53.1 38 -2 28.5
22:20 1016 30 845 24.95 11.7 53 39 -1.8 28.8
22:25 1016 30 845 24.95 11.6 52.8 40 -1.7 29
22:30 1016 30 845 24.95 11.5 52.8 40 -1.5 29.4
22:35 1016 30 845 24.95 11.5 52.6 40 -1.5 29.4
22:40 1016 30 845 24.95 11.4 52.6 41 -1.3 29.7
22:45 1016 30 845 24.95 11.3 52.3 42 -1.2 29.8
22:50 1016 30 845 24.95 11.2 52.2 42 -1.3 29.7
22:55 1016 30 845 24.95 11.2 52.2 41 -1.4 29.4
23:00 1016 30 845 24.95 11.3 52.3 41 -1.6 29.2
23:05 1016 30 845 24.95 11.3 52.3 40 -1.9 28.6
23:10 1016 30 845 24.95 11.3 52.3 40 -1.7 28.9
23:15 1016 30 845 24.95 11.2 52.2 40 -1.8 28.8
23:20 1016 30 845 24.95 11.2 52.2 40 -1.8 28.8
23:25 1016 30 845 24.95 11.1 52 41 -1.5 29.2
23:30 1016 30 845 24.95 11 51.9 42 -1.3 29.6
23:35 1016 30 845 24.95 10.9 51.6 43 -1.1 30.1
23:40 1016 30 845 24.95 10.7 51.3 45 -0.8 30.6
23:45 1016 30 845 24.95 10.6 51.1 43 -1.4 29.5
23:50 1016 30 845 24.95 10.5 51 46 -0.7 30.8
23:55 1016 30 845 24.95 10.4 50.8 46 -0.7 30.7
24:00 1016 30 845 24.95 10.3 50.6 46 -0.9 30.4